createdAt,value
2023-04-12T00:00:16.514Z,30.83
2023-04-12T00:01:16.551Z,30.78
2023-04-12T00:02:16.647Z,30.72
2023-04-12T00:03:16.725Z,30.71
2023-04-12T00:04:16.708Z,30.67
2023-04-12T00:05:16.593Z,30.64
2023-04-12T00:06:16.567Z,30.62
2023-04-12T00:07:16.563Z,30.63
2023-04-12T00:08:16.586Z,30.59
2023-04-12T00:09:16.559Z,30.60
2023-04-12T00:10:16.572Z,30.58
2023-04-12T00:11:16.563Z,30.57
2023-04-12T00:12:16.555Z,30.58
2023-04-12T00:13:16.597Z,30.56
2023-04-12T00:14:16.578Z,30.55
2023-04-12T00:15:16.637Z,30.58
2023-04-12T00:16:16.583Z,30.56
2023-04-12T00:17:16.565Z,30.54
2023-04-12T00:18:16.571Z,30.55
2023-04-12T00:19:16.814Z,30.51
2023-04-12T00:20:16.666Z,30.52
2023-04-12T00:21:16.580Z,30.51
2023-04-12T00:22:16.592Z,30.51
2023-04-12T00:23:16.599Z,30.51
2023-04-12T00:24:16.605Z,30.50
2023-04-12T00:25:16.670Z,30.51
2023-04-12T00:26:16.612Z,30.52
2023-04-12T00:27:16.611Z,30.51
2023-04-12T00:28:16.616Z,30.50
2023-04-12T00:29:16.665Z,30.49
2023-04-12T00:30:16.624Z,30.48
2023-04-12T00:31:16.693Z,30.48
2023-04-12T00:32:16.635Z,30.46
2023-04-12T00:33:16.642Z,30.46
2023-04-12T00:34:16.650Z,30.46
2023-04-12T00:35:16.654Z,30.45
2023-04-12T00:36:16.676Z,30.46
2023-04-12T00:37:16.657Z,30.48
2023-04-12T00:38:16.671Z,30.46
2023-04-12T00:39:16.670Z,30.45
2023-04-12T00:40:16.675Z,30.45
2023-04-12T00:41:16.672Z,30.45
2023-04-12T00:42:16.682Z,30.42
2023-04-12T00:43:16.679Z,30.43
2023-04-12T00:44:16.692Z,30.43
2023-04-12T00:45:16.732Z,30.43
2023-04-12T00:46:16.705Z,30.42
2023-04-12T00:47:16.690Z,30.43
2023-04-12T00:48:16.707Z,30.42
2023-04-12T00:49:16.702Z,30.41
2023-04-12T00:50:16.710Z,30.42
2023-04-12T00:51:16.711Z,30.40
2023-04-12T00:52:16.712Z,30.41
2023-04-12T00:53:16.717Z,30.39
2023-04-12T00:54:16.703Z,30.41
2023-04-12T00:55:16.732Z,30.40
2023-04-12T00:56:16.719Z,30.41
2023-04-12T00:57:16.722Z,30.40
2023-04-12T00:58:16.728Z,30.40
2023-04-12T00:59:16.752Z,30.43
2023-04-12T01:00:16.734Z,30.39
2023-04-12T01:01:16.860Z,30.39
2023-04-12T01:02:16.798Z,30.38
2023-04-12T01:03:16.977Z,30.38
2023-04-12T01:04:16.765Z,30.37
2023-04-12T01:05:16.759Z,30.36
2023-04-12T01:06:16.794Z,30.36
2023-04-12T01:07:16.781Z,30.37
2023-04-12T01:08:16.782Z,30.35
2023-04-12T01:09:16.797Z,30.34
2023-04-12T01:10:16.795Z,30.35
2023-04-12T01:11:16.787Z,30.35
2023-04-12T01:12:16.823Z,30.34
2023-04-12T01:13:16.795Z,30.35
2023-04-12T01:14:16.799Z,30.33
2023-04-12T01:15:16.810Z,30.34
2023-04-12T01:16:16.837Z,30.29
2023-04-12T01:17:16.850Z,30.31
2023-04-12T01:18:16.831Z,30.31
2023-04-12T01:19:16.850Z,30.33
2023-04-12T01:20:16.852Z,30.29
2023-04-12T01:21:16.863Z,30.30
2023-04-12T01:22:16.868Z,30.29
2023-04-12T01:23:16.859Z,30.27
2023-04-12T01:24:16.863Z,30.29
2023-04-12T01:25:16.869Z,30.29
2023-04-12T01:26:16.908Z,30.29
2023-04-12T01:27:16.883Z,30.27
2023-04-12T01:28:16.890Z,30.28
2023-04-12T01:29:16.901Z,30.27
2023-04-12T01:30:16.894Z,30.30
2023-04-12T01:31:16.898Z,30.26
2023-04-12T01:32:16.902Z,30.28
2023-04-12T01:33:17.561Z,30.26
2023-04-12T01:34:16.927Z,30.28
2023-04-12T01:35:16.922Z,30.25
2023-04-12T01:36:16.938Z,30.25
2023-04-12T01:37:16.925Z,30.25
2023-04-12T01:38:16.926Z,30.25
2023-04-12T01:39:16.927Z,30.21
2023-04-12T01:40:16.925Z,30.24
2023-04-12T01:41:16.935Z,30.23
2023-04-12T01:42:16.931Z,30.22
2023-04-12T01:43:16.935Z,30.25
2023-04-12T01:44:16.970Z,30.23
2023-04-12T01:45:16.945Z,30.20
2023-04-12T01:46:17.186Z,30.20
2023-04-12T01:47:16.950Z,30.20
2023-04-12T01:48:16.953Z,30.21
2023-04-12T01:49:16.986Z,30.20
2023-04-12T01:50:16.965Z,30.20
2023-04-12T01:51:16.982Z,30.20
2023-04-12T01:52:16.985Z,30.18
2023-04-12T01:53:16.991Z,30.20
2023-04-12T01:54:17.002Z,30.20
2023-04-12T01:55:16.999Z,30.22
2023-04-12T01:56:17.018Z,30.20
2023-04-12T01:57:17.008Z,30.18
2023-04-12T01:58:17.016Z,30.18
2023-04-12T01:59:17.020Z,30.18
2023-04-12T02:00:17.033Z,30.18
2023-04-12T02:01:17.045Z,30.20
2023-04-12T02:02:17.132Z,30.18
2023-04-12T02:03:17.209Z,30.16
2023-04-12T02:04:17.085Z,30.17
2023-04-12T02:05:17.063Z,30.17
2023-04-12T02:06:17.059Z,30.16
2023-04-12T02:07:17.062Z,30.16
2023-04-12T02:08:17.054Z,30.15
2023-04-12T02:09:17.086Z,30.15
2023-04-12T02:10:17.071Z,30.15
2023-04-12T02:11:17.079Z,30.15
2023-04-12T02:12:17.091Z,30.14
2023-04-12T02:13:17.082Z,30.14
2023-04-12T02:14:17.082Z,30.13
2023-04-12T02:15:17.081Z,30.13
2023-04-12T02:16:17.113Z,30.13
2023-04-12T02:17:17.094Z,30.13
2023-04-12T02:18:17.094Z,30.13
2023-04-12T02:19:17.111Z,30.13
2023-04-12T02:20:17.112Z,30.14
2023-04-12T02:21:17.162Z,30.12
2023-04-12T02:22:17.150Z,30.12
2023-04-12T02:23:17.149Z,30.11
2023-04-12T02:24:17.150Z,30.09
2023-04-12T02:25:17.185Z,30.12
2023-04-12T02:26:17.169Z,30.11
2023-04-12T02:27:17.168Z,30.11
2023-04-12T02:28:17.171Z,30.11
2023-04-12T02:29:17.177Z,30.11
2023-04-12T02:30:17.186Z,30.12
2023-04-12T02:31:17.521Z,30.06
2023-04-12T02:32:17.190Z,30.07
2023-04-12T02:33:17.187Z,30.07
2023-04-12T02:34:17.198Z,30.08
2023-04-12T02:35:17.228Z,30.08
2023-04-12T02:36:17.211Z,30.06
2023-04-12T02:37:17.238Z,30.08
2023-04-12T02:38:17.214Z,30.05
2023-04-12T02:39:17.217Z,30.06
2023-04-12T02:40:17.225Z,30.08
2023-04-12T02:41:17.272Z,30.06
2023-04-12T02:42:17.238Z,30.06
2023-04-12T02:43:17.279Z,30.05
2023-04-12T02:44:17.235Z,30.05
2023-04-12T02:45:17.223Z,30.05
2023-04-12T02:46:17.319Z,30.04
2023-04-12T02:47:17.226Z,30.04
2023-04-12T02:48:17.230Z,30.06
2023-04-12T02:49:17.234Z,30.04
2023-04-12T02:50:17.249Z,30.04
2023-04-12T02:51:17.248Z,30.04
2023-04-12T02:52:17.252Z,30.03
2023-04-12T02:53:17.268Z,30.04
2023-04-12T02:54:17.248Z,30.02
2023-04-12T02:55:17.283Z,30.03
2023-04-12T02:56:17.261Z,30.02
2023-04-12T02:57:17.276Z,30.01
2023-04-12T02:58:17.296Z,30.01
2023-04-12T02:59:17.279Z,30.01
2023-04-12T03:00:17.287Z,30.03
2023-04-12T03:01:17.334Z,30.01
2023-04-12T03:02:17.382Z,30.04
2023-04-12T03:03:17.503Z,30.00
2023-04-12T03:04:17.505Z,30.00
2023-04-12T03:05:17.318Z,29.97
2023-04-12T03:06:17.311Z,30.01
2023-04-12T03:07:17.311Z,29.98
2023-04-12T03:08:17.306Z,29.97
2023-04-12T03:09:17.346Z,29.99
2023-04-12T03:10:17.318Z,29.96
2023-04-12T03:11:17.318Z,29.95
2023-04-12T03:12:17.376Z,29.98
2023-04-12T03:13:17.363Z,29.95
2023-04-12T03:14:17.350Z,29.94
2023-04-12T03:15:17.353Z,29.95
2023-04-12T03:16:17.488Z,29.96
2023-04-12T03:17:17.376Z,29.94
2023-04-12T03:18:17.373Z,29.92
2023-04-12T03:19:17.387Z,29.93
2023-04-12T03:20:17.426Z,29.93
2023-04-12T03:21:17.388Z,29.92
2023-04-12T03:22:17.398Z,29.91
2023-04-12T03:23:17.450Z,29.91
2023-04-12T03:24:17.415Z,29.92
2023-04-12T03:25:17.426Z,29.92
2023-04-12T03:26:17.410Z,29.91
2023-04-12T03:27:17.407Z,29.92
2023-04-12T03:28:17.421Z,29.90
2023-04-12T03:29:17.430Z,29.90
2023-04-12T03:30:17.431Z,29.90
2023-04-12T03:31:17.486Z,29.93
2023-04-12T03:32:17.441Z,29.91
2023-04-12T03:33:17.444Z,29.90
2023-04-12T03:34:17.450Z,29.89
2023-04-12T03:35:17.509Z,29.89
2023-04-12T03:36:18.017Z,29.91
2023-04-12T03:37:17.516Z,29.91
2023-04-12T03:38:17.463Z,29.88
2023-04-12T03:39:17.476Z,29.87
2023-04-12T03:40:17.480Z,29.88
2023-04-12T03:41:17.514Z,29.89
2023-04-12T03:42:29.912Z,29.89
2023-04-12T03:43:17.494Z,29.88
2023-04-12T03:44:17.479Z,29.86
2023-04-12T03:45:17.470Z,29.88
2023-04-12T03:46:17.502Z,29.84
2023-04-12T03:47:17.460Z,29.85
2023-04-12T03:48:17.454Z,29.90
2023-04-12T03:49:17.446Z,29.85
2023-04-12T03:50:17.435Z,29.84
2023-04-12T03:51:17.437Z,29.83
2023-04-12T03:52:17.430Z,29.86
2023-04-12T03:53:17.417Z,29.86
2023-04-12T03:54:17.409Z,29.84
2023-04-12T03:55:17.409Z,29.83
2023-04-12T03:56:17.413Z,29.84
2023-04-12T03:57:17.442Z,29.82
2023-04-12T03:58:17.378Z,29.83
2023-04-12T03:59:17.371Z,29.85
2023-04-12T04:00:17.364Z,29.84
2023-04-12T04:01:17.359Z,29.80
2023-04-12T04:02:17.380Z,29.83
2023-04-12T04:03:17.438Z,29.81
2023-04-12T04:04:17.570Z,29.82
2023-04-12T04:05:17.404Z,29.84
2023-04-12T04:06:17.336Z,29.82
2023-04-12T04:07:17.322Z,29.81
2023-04-12T04:08:17.315Z,29.81
2023-04-12T04:09:17.300Z,29.82
2023-04-12T04:10:17.310Z,29.84
2023-04-12T04:11:17.294Z,29.82
2023-04-12T04:12:17.340Z,29.80
2023-04-12T04:13:17.304Z,29.82
2023-04-12T04:14:17.296Z,29.80
2023-04-12T04:15:17.261Z,29.80
2023-04-12T04:16:17.273Z,29.80
2023-04-12T04:17:17.236Z,29.80
2023-04-12T04:18:17.238Z,29.79
2023-04-12T04:19:17.229Z,29.81
2023-04-12T04:20:17.218Z,29.78
2023-04-12T04:21:17.214Z,29.78
2023-04-12T04:22:17.209Z,29.78
2023-04-12T04:23:17.199Z,29.76
2023-04-12T04:24:17.202Z,29.79
2023-04-12T04:25:17.187Z,29.78
2023-04-12T04:26:17.204Z,29.80
2023-04-12T04:27:17.178Z,29.80
2023-04-12T04:28:17.170Z,29.81
2023-04-12T04:29:17.240Z,29.82
2023-04-12T04:30:17.151Z,29.78
2023-04-12T04:31:17.179Z,29.79
2023-04-12T04:32:17.175Z,29.78
2023-04-12T04:33:17.135Z,29.80
2023-04-12T04:34:17.123Z,29.79
2023-04-12T04:35:17.238Z,29.78
2023-04-12T04:36:17.121Z,29.77
2023-04-12T04:37:17.101Z,29.78
2023-04-12T04:38:17.100Z,29.77
2023-04-12T04:39:17.122Z,29.77
2023-04-12T04:40:17.104Z,29.76
2023-04-12T04:41:17.078Z,29.79
2023-04-12T04:42:17.078Z,29.78
2023-04-12T04:43:17.066Z,29.80
2023-04-12T04:44:17.057Z,29.81
2023-04-12T04:45:17.173Z,29.77
2023-04-12T04:46:17.150Z,29.78
2023-04-12T04:47:17.044Z,29.75
2023-04-12T04:48:17.037Z,29.77
2023-04-12T04:49:17.042Z,29.77
2023-04-12T04:50:17.021Z,29.76
2023-04-12T04:51:17.019Z,29.76
2023-04-12T04:52:17.006Z,29.76
2023-04-12T04:53:16.994Z,29.77
2023-04-12T04:54:17.029Z,29.78
2023-04-12T04:55:16.988Z,29.76
2023-04-12T04:56:16.999Z,29.75
2023-04-12T04:57:16.983Z,29.78
2023-04-12T04:58:16.965Z,29.76
2023-04-12T04:59:16.953Z,29.77
2023-04-12T05:00:16.956Z,29.75
2023-04-12T05:01:17.105Z,29.76
2023-04-12T05:02:17.030Z,29.77
2023-04-12T05:03:17.060Z,29.75
2023-04-12T05:04:17.021Z,29.77
2023-04-12T05:05:16.922Z,29.77
2023-04-12T05:06:16.923Z,29.78
2023-04-12T05:07:16.901Z,29.77
2023-04-12T05:08:16.899Z,29.76
2023-04-12T05:09:16.887Z,29.74
2023-04-12T05:10:16.883Z,29.77
2023-04-12T05:11:16.906Z,29.77
2023-04-12T05:12:16.879Z,29.77
2023-04-12T05:13:17.062Z,29.75
2023-04-12T05:14:16.852Z,29.76
2023-04-12T05:15:16.849Z,29.77
2023-04-12T05:16:16.867Z,29.77
2023-04-12T05:17:16.890Z,29.74
2023-04-12T05:18:17.062Z,29.76
2023-04-12T05:19:16.834Z,29.75
2023-04-12T05:20:16.808Z,29.80
2023-04-12T05:21:16.803Z,29.84
2023-04-12T05:22:16.828Z,29.88
2023-04-12T05:23:16.818Z,29.86
2023-04-12T05:24:17.108Z,29.86
2023-04-12T05:25:16.777Z,29.89
2023-04-12T05:26:16.769Z,29.86
2023-04-12T05:27:16.768Z,29.90
2023-04-12T05:28:16.771Z,29.88
2023-04-12T05:29:16.765Z,29.89
2023-04-12T05:30:16.775Z,29.92
2023-04-12T05:31:16.807Z,29.93
2023-04-12T05:32:17.065Z,29.95
2023-04-12T05:33:16.858Z,29.95
2023-04-12T05:34:16.817Z,29.95
2023-04-12T05:35:16.793Z,29.98
2023-04-12T05:36:16.794Z,30.02
2023-04-12T05:37:17.092Z,30.04
2023-04-12T05:38:16.834Z,30.04
2023-04-12T05:39:18.281Z,30.05
2023-04-12T05:40:16.809Z,30.07
2023-04-12T05:41:16.810Z,30.19
2023-04-12T05:42:16.788Z,30.22
2023-04-12T05:43:17.074Z,30.23
2023-04-12T05:44:17.072Z,30.25
2023-04-12T05:45:16.766Z,30.24
2023-04-12T05:46:16.875Z,30.22
2023-04-12T05:47:17.086Z,30.23
2023-04-12T05:48:17.080Z,30.27
2023-04-12T05:49:16.773Z,30.34
2023-04-12T05:50:17.094Z,30.36
2023-04-12T05:51:19.453Z,30.38
2023-04-12T05:52:17.089Z,30.53
2023-04-12T05:53:19.922Z,30.71
2023-04-12T05:54:16.888Z,30.79
2023-04-12T05:55:17.078Z,30.86
2023-04-12T05:56:16.713Z,31.00
2023-04-12T05:57:17.601Z,31.38
2023-04-12T05:58:17.030Z,31.34
2023-04-12T05:59:16.674Z,31.52
2023-04-12T06:00:19.900Z,31.75
2023-04-12T06:01:19.878Z,31.88
2023-04-12T06:03:16.817Z,32.19
2023-04-12T06:04:16.875Z,32.28
2023-04-12T06:05:16.824Z,32.49
2023-04-12T06:06:16.689Z,32.55
2023-04-12T06:07:16.636Z,32.67
2023-04-12T06:08:17.096Z,32.70
2023-04-12T06:09:16.608Z,32.86
2023-04-12T06:10:16.642Z,33.00
2023-04-12T06:11:16.603Z,33.09
2023-04-12T06:12:16.584Z,33.18
2023-04-12T06:13:16.604Z,33.28
2023-04-12T06:14:16.589Z,33.41
2023-04-12T06:15:16.589Z,33.54
2023-04-12T06:16:16.580Z,33.61
2023-04-12T06:17:16.574Z,33.75
2023-04-12T06:18:16.626Z,33.85
2023-04-12T06:19:16.596Z,33.82
2023-04-12T06:20:16.535Z,33.96
2023-04-12T06:21:16.628Z,34.05
2023-04-12T06:22:16.594Z,34.13
2023-04-12T06:23:16.597Z,34.20
2023-04-12T06:24:16.507Z,34.25
2023-04-12T06:25:16.508Z,34.30
2023-04-12T06:26:18.393Z,34.43
2023-04-12T06:27:16.485Z,34.53
2023-04-12T06:28:16.617Z,34.64
2023-04-12T06:29:16.458Z,34.67
2023-04-12T06:30:16.459Z,34.77
2023-04-12T06:31:16.532Z,34.88
2023-04-12T06:32:16.614Z,34.97
2023-04-12T06:33:16.645Z,35.01
2023-04-12T06:34:16.423Z,35.07
2023-04-12T06:35:16.419Z,35.10
2023-04-12T06:36:16.515Z,35.24
2023-04-12T06:37:16.656Z,35.36
2023-04-12T06:38:16.406Z,35.46
2023-04-12T06:39:16.597Z,35.39
2023-04-12T06:40:16.387Z,35.46
2023-04-12T06:41:16.382Z,35.57
2023-04-12T06:42:16.373Z,35.69
2023-04-12T06:43:16.394Z,35.69
2023-04-12T06:44:16.598Z,35.69
2023-04-12T06:45:16.368Z,35.82
2023-04-12T06:46:16.391Z,35.96
2023-04-12T06:47:16.599Z,36.15
2023-04-12T06:48:16.337Z,36.05
2023-04-12T06:49:16.596Z,35.83
2023-04-12T06:50:16.314Z,35.87
2023-04-12T06:51:16.314Z,35.84
2023-04-12T06:52:16.356Z,35.76
2023-04-12T06:53:16.529Z,35.72
2023-04-12T06:54:16.602Z,35.65
2023-04-12T06:55:16.518Z,35.55
2023-04-12T06:56:18.412Z,35.49
2023-04-12T06:57:16.556Z,35.44
2023-04-12T06:58:16.597Z,35.44
2023-04-12T06:59:16.556Z,35.37
2023-04-12T07:00:16.542Z,35.41
2023-04-12T07:01:16.569Z,35.36
2023-04-12T07:02:16.567Z,35.30
2023-04-12T07:03:16.666Z,35.33
2023-04-12T07:04:16.628Z,35.31
2023-04-12T07:05:16.524Z,35.31
2023-04-12T07:06:25.202Z,35.30
2023-04-12T07:07:16.501Z,35.32
2023-04-12T07:08:16.606Z,35.35
2023-04-12T07:09:16.516Z,35.29
2023-04-12T07:10:16.477Z,35.27
2023-04-12T07:11:21.365Z,35.24
2023-04-12T07:12:16.480Z,35.22
2023-04-12T07:13:16.608Z,35.22
2023-04-12T07:14:16.616Z,35.18
2023-04-12T07:15:16.441Z,35.16
2023-04-12T07:16:16.470Z,35.17
2023-04-12T07:17:16.608Z,35.12
2023-04-12T07:18:16.459Z,35.09
2023-04-12T07:19:16.437Z,35.06
2023-04-12T07:20:16.635Z,35.07
2023-04-12T07:21:16.433Z,35.04
2023-04-12T07:22:16.426Z,35.01
2023-04-12T07:23:16.398Z,34.99
2023-04-12T07:24:16.625Z,35.01
2023-04-12T07:25:16.419Z,34.99
2023-04-12T07:26:16.391Z,34.95
2023-04-12T07:27:16.563Z,34.94
2023-04-12T07:28:16.417Z,34.92
2023-04-12T07:29:16.635Z,34.91
2023-04-12T07:30:16.422Z,34.84
2023-04-12T07:31:16.335Z,34.81
2023-04-12T07:32:16.660Z,34.77
2023-04-12T07:33:19.986Z,34.76
2023-04-12T07:34:16.736Z,34.83
2023-04-12T07:35:16.308Z,34.82
2023-04-12T07:36:16.358Z,34.77
2023-04-12T07:37:16.652Z,34.88
2023-04-12T07:38:17.007Z,34.70
2023-04-12T07:39:16.663Z,34.90
2023-04-12T07:40:19.593Z,35.00
2023-04-12T07:41:16.291Z,35.02
2023-04-12T07:42:16.661Z,35.09
2023-04-12T07:43:16.670Z,35.11
2023-04-12T07:44:16.289Z,35.16
2023-04-12T07:45:16.660Z,35.25
2023-04-12T07:46:16.328Z,35.38
2023-04-12T07:47:16.684Z,35.45
2023-04-12T07:48:16.230Z,35.55
2023-04-12T07:49:17.652Z,35.69
2023-04-12T07:50:16.297Z,35.74
2023-04-12T07:51:16.349Z,36.00
2023-04-12T07:52:16.845Z,35.93
2023-04-12T07:53:17.467Z,35.79
2023-04-12T07:54:16.659Z,35.65
2023-04-12T07:55:16.615Z,35.62
2023-04-12T07:56:16.690Z,35.54
2023-04-12T07:57:17.176Z,35.49
2023-04-12T07:58:18.842Z,35.49
2023-04-12T07:59:16.786Z,35.47
2023-04-12T08:00:16.801Z,35.45
2023-04-12T08:01:16.788Z,35.45
2023-04-12T08:02:17.228Z,35.38
2023-04-12T08:03:16.905Z,35.34
2023-04-12T08:04:18.038Z,35.32
2023-04-12T08:05:16.823Z,35.34
2023-04-12T08:06:17.215Z,35.34
2023-04-12T08:07:16.751Z,35.35
2023-04-12T08:08:18.771Z,35.29
2023-04-12T08:09:18.194Z,35.35
2023-04-12T08:10:17.846Z,35.27
2023-04-12T08:11:16.897Z,35.30
2023-04-12T08:12:17.220Z,35.25
2023-04-12T08:13:17.023Z,35.21
2023-04-12T08:14:17.078Z,35.21
2023-04-12T08:15:17.090Z,35.20
2023-04-12T08:16:17.321Z,35.21
2023-04-12T08:17:17.072Z,35.20
2023-04-12T08:18:17.061Z,35.21
2023-04-12T08:19:17.060Z,35.18
2023-04-12T08:20:17.064Z,35.14
2023-04-12T08:21:17.174Z,35.08
2023-04-12T08:22:17.069Z,35.11
2023-04-12T08:23:17.044Z,35.09
2023-04-12T08:24:17.043Z,35.05
2023-04-12T08:25:17.086Z,35.06
2023-04-12T08:26:17.173Z,35.07
2023-04-12T08:27:17.079Z,35.04
2023-04-12T08:28:17.226Z,34.98
2023-04-12T08:29:17.087Z,34.95
2023-04-12T08:30:17.095Z,34.91
2023-04-12T08:31:17.138Z,34.94
2023-04-12T08:32:17.189Z,34.95
2023-04-12T08:33:17.098Z,34.94
2023-04-12T08:34:17.135Z,34.90
2023-04-12T08:35:17.181Z,34.88
2023-04-12T08:36:17.154Z,34.81
2023-04-12T08:37:17.120Z,34.81
2023-04-12T08:38:17.198Z,34.80
2023-04-12T08:39:17.073Z,34.76
2023-04-12T08:40:17.182Z,34.74
2023-04-12T08:41:17.065Z,34.81
2023-04-12T08:42:17.066Z,34.73
2023-04-12T08:43:17.179Z,34.75
2023-04-12T08:44:17.166Z,34.72
2023-04-12T08:45:17.073Z,34.68
2023-04-12T08:46:17.173Z,34.64
2023-04-12T08:47:17.067Z,34.63
2023-04-12T08:48:17.173Z,34.62
2023-04-12T08:49:17.056Z,34.61
2023-04-12T08:50:17.187Z,34.63
2023-04-12T08:51:20.260Z,34.63
2023-04-12T08:52:17.019Z,34.64
2023-04-12T08:53:17.156Z,34.60
2023-04-12T08:54:17.007Z,34.55
2023-04-12T08:55:16.990Z,34.53
2023-04-12T08:56:17.014Z,34.53
2023-04-12T08:57:16.984Z,34.49
2023-04-12T08:58:17.158Z,34.46
2023-04-12T08:59:16.974Z,34.46
2023-04-12T09:00:17.187Z,34.46
2023-04-12T09:01:16.957Z,34.45
2023-04-12T09:02:17.100Z,34.46
2023-04-12T09:03:17.589Z,34.43
2023-04-12T09:04:17.095Z,34.42
2023-04-12T09:05:17.024Z,34.37
2023-04-12T09:06:16.925Z,34.35
2023-04-12T09:07:16.912Z,34.33
2023-04-12T09:08:17.164Z,34.31
2023-04-12T09:09:16.906Z,34.30
2023-04-12T09:10:16.895Z,34.29
2023-04-12T09:11:16.890Z,34.24
2023-04-12T09:12:16.877Z,34.23
2023-04-12T09:13:17.168Z,34.19
2023-04-12T09:14:16.874Z,34.17
2023-04-12T09:15:17.166Z,34.17
2023-04-12T09:16:16.974Z,34.12
2023-04-12T09:17:16.874Z,34.13
2023-04-12T09:18:17.578Z,34.12
2023-04-12T09:19:17.201Z,34.13
2023-04-12T09:20:16.838Z,34.12
2023-04-12T09:21:17.394Z,34.10
2023-04-12T09:22:16.818Z,34.07
2023-04-12T09:23:17.169Z,33.30
2023-04-12T09:24:17.170Z,33.85
2023-04-12T09:25:17.173Z,34.48
2023-04-12T09:26:16.781Z,35.15
2023-04-12T09:27:17.857Z,35.58
2023-04-12T09:28:16.806Z,36.54
2023-04-12T09:29:17.190Z,36.58
2023-04-12T09:30:16.872Z,36.81
2023-04-12T09:31:16.825Z,36.85
2023-04-12T09:32:16.820Z,37.09
2023-04-12T09:33:17.102Z,36.97
2023-04-12T09:34:17.181Z,37.11
2023-04-12T09:35:16.845Z,36.99
2023-04-12T09:36:16.891Z,36.93
2023-04-12T09:37:17.002Z,36.74
2023-04-12T09:38:17.225Z,36.57
2023-04-12T09:39:16.909Z,36.85
2023-04-12T09:40:17.021Z,36.57
2023-04-12T09:41:18.968Z,36.75
2023-04-12T09:42:32.472Z,36.48
2023-04-12T09:43:17.220Z,36.92
2023-04-12T09:44:16.953Z,36.70
2023-04-12T09:45:17.194Z,37.10
2023-04-12T09:46:17.000Z,37.16
2023-04-12T09:47:24.408Z,36.70
2023-04-12T09:48:16.970Z,36.96
2023-04-12T09:49:16.890Z,36.93
2023-04-12T09:50:17.251Z,36.74
2023-04-12T09:51:16.908Z,36.93
2023-04-12T09:52:16.868Z,36.97
2023-04-12T09:53:16.885Z,37.01
2023-04-12T09:54:16.849Z,37.42
2023-04-12T09:55:17.236Z,37.48
2023-04-12T09:56:16.834Z,37.46
2023-04-12T09:57:16.835Z,37.40
2023-04-12T09:58:16.836Z,37.34
2023-04-12T09:59:17.192Z,37.36
2023-04-12T10:00:16.943Z,37.30
2023-04-12T10:01:17.797Z,37.30
2023-04-12T10:02:16.950Z,37.26
2023-04-12T10:03:17.353Z,37.27
2023-04-12T10:04:17.133Z,37.31
2023-04-12T10:05:17.464Z,37.33
2023-04-12T10:06:16.773Z,37.28
2023-04-12T10:07:16.750Z,37.46
2023-04-12T10:08:16.764Z,37.50
2023-04-12T10:09:17.185Z,37.50
2023-04-12T10:10:16.854Z,37.51
2023-04-12T10:11:16.725Z,37.63
2023-04-12T10:12:16.717Z,37.54
2023-04-12T10:13:17.184Z,37.62
2023-04-12T10:14:17.707Z,37.72
2023-04-12T10:15:16.697Z,37.76
2023-04-12T10:16:16.874Z,37.83
2023-04-12T10:17:16.828Z,37.78
2023-04-12T10:18:17.274Z,37.86
2023-04-12T10:19:16.897Z,37.93
2023-04-12T10:20:17.267Z,37.96
2023-04-12T10:21:17.022Z,38.06
2023-04-12T10:22:17.054Z,38.19
2023-04-12T10:23:17.192Z,38.31
2023-04-12T10:24:17.213Z,38.29
2023-04-12T10:25:17.527Z,38.29
2023-04-12T10:26:17.296Z,38.27
2023-04-12T10:27:17.425Z,38.23
2023-04-12T10:28:17.502Z,38.22
2023-04-12T10:29:17.734Z,37.83
2023-04-12T10:30:20.804Z,37.89
2023-04-12T10:31:17.750Z,37.12
2023-04-12T10:32:17.552Z,36.75
2023-04-12T10:33:17.928Z,36.71
2023-04-12T10:34:17.557Z,36.70
2023-04-12T10:35:17.592Z,36.34
2023-04-12T10:36:17.605Z,35.96
2023-04-12T10:37:17.551Z,35.71
2023-04-12T10:38:17.713Z,36.01
2023-04-12T10:39:17.476Z,36.10
2023-04-12T10:40:17.521Z,35.82
2023-04-12T10:41:17.464Z,35.61
2023-04-12T10:42:17.492Z,35.76
2023-04-12T10:43:17.465Z,35.82
2023-04-12T10:44:17.440Z,36.06
2023-04-12T10:45:17.429Z,36.16
2023-04-12T10:46:17.427Z,36.27
2023-04-12T10:47:17.551Z,35.87
2023-04-12T10:48:17.439Z,35.80
2023-04-12T10:49:17.421Z,35.88
2023-04-12T10:50:17.914Z,36.11
2023-04-12T10:51:18.178Z,35.98
2023-04-12T10:52:17.609Z,36.23
2023-04-12T10:53:17.475Z,36.08
2023-04-12T10:54:17.541Z,35.88
2023-04-12T10:55:17.613Z,35.86
2023-04-12T10:56:17.671Z,35.94
2023-04-12T10:57:17.713Z,36.08
2023-04-12T10:58:17.778Z,36.15
2023-04-12T10:59:17.834Z,36.07
2023-04-12T11:00:17.929Z,36.14
2023-04-12T11:01:18.321Z,36.09
2023-04-12T11:02:18.127Z,36.15
2023-04-12T11:03:18.194Z,36.17
2023-04-12T11:04:18.298Z,36.16
2023-04-12T11:05:18.835Z,36.10
2023-04-12T11:06:27.005Z,36.00
2023-04-12T11:07:18.829Z,35.90
2023-04-12T11:08:18.180Z,35.92
2023-04-12T11:09:18.184Z,36.18
2023-04-12T11:10:19.215Z,36.30
2023-04-12T11:11:18.185Z,36.36
2023-04-12T11:12:18.207Z,36.44
2023-04-12T11:13:18.148Z,36.46
2023-04-12T11:14:18.180Z,36.43
2023-04-12T11:15:18.486Z,36.52
2023-04-12T11:16:18.245Z,36.56
2023-04-12T11:17:18.168Z,36.44
2023-04-12T11:18:18.151Z,36.35
2023-04-12T11:19:18.131Z,36.22
2023-04-12T11:20:18.142Z,36.08
2023-04-12T11:21:18.088Z,35.91
2023-04-12T11:22:18.170Z,35.66
2023-04-12T11:23:18.231Z,35.78
2023-04-12T11:24:18.236Z,35.91
2023-04-12T11:25:18.283Z,36.09
2023-04-12T11:26:18.285Z,36.02
2023-04-12T11:27:18.320Z,35.90
2023-04-12T11:28:28.592Z,35.75
2023-04-12T11:29:18.716Z,35.58
2023-04-12T11:30:18.338Z,35.64
2023-04-12T11:31:18.362Z,35.42
2023-04-12T11:32:18.430Z,35.52
2023-04-12T11:33:18.328Z,35.45
2023-04-12T11:34:18.726Z,35.57
2023-04-12T11:35:18.314Z,35.58
2023-04-12T11:36:18.340Z,35.57
2023-04-12T11:37:18.401Z,35.59
2023-04-12T11:38:18.296Z,35.54
2023-04-12T11:39:18.305Z,35.52
2023-04-12T11:40:18.280Z,35.65
2023-04-12T11:41:18.814Z,35.71
2023-04-12T11:42:18.261Z,35.63
2023-04-12T11:43:18.251Z,35.60
2023-04-12T11:44:18.340Z,35.61
2023-04-12T11:45:18.684Z,35.72
2023-04-12T11:46:18.992Z,35.69
2023-04-12T11:47:18.220Z,35.70
2023-04-12T11:48:18.303Z,35.68
2023-04-12T11:49:18.244Z,35.73
2023-04-12T11:50:18.219Z,35.80
2023-04-12T11:51:18.197Z,35.72
2023-04-12T11:52:18.223Z,35.66
2023-04-12T11:53:18.267Z,35.59
2023-04-12T11:54:18.306Z,35.76
2023-04-12T11:55:18.368Z,35.92
2023-04-12T11:56:18.394Z,35.87
2023-04-12T11:57:18.742Z,35.94
2023-04-12T11:58:18.464Z,35.91
2023-04-12T11:59:18.494Z,35.98
2023-04-12T12:00:18.733Z,35.96
2023-04-12T12:01:18.580Z,35.82
2023-04-12T12:02:23.588Z,34.50
2023-04-12T12:03:18.798Z,34.84
2023-04-12T12:04:18.826Z,34.66
2023-04-12T12:05:19.279Z,35.29
2023-04-12T12:06:19.035Z,35.68
2023-04-12T12:07:19.233Z,36.04
2023-04-12T12:08:18.579Z,36.01
2023-04-12T12:09:18.734Z,36.35
2023-04-12T12:10:32.522Z,36.52
2023-04-12T12:11:18.603Z,36.62
2023-04-12T12:12:18.602Z,36.85
2023-04-12T12:13:18.576Z,36.90
2023-04-12T12:14:18.543Z,36.95
2023-04-12T12:15:18.531Z,36.93
2023-04-12T12:16:18.589Z,37.04
2023-04-12T12:17:18.761Z,37.08
2023-04-12T12:18:18.527Z,37.06
2023-04-12T12:19:18.508Z,37.19
2023-04-12T12:20:18.498Z,37.24
2023-04-12T12:21:18.540Z,37.28
2023-04-12T12:22:18.495Z,37.40
2023-04-12T12:23:18.477Z,37.39
2023-04-12T12:24:18.470Z,37.54
2023-04-12T12:25:18.484Z,37.52
2023-04-12T12:26:19.465Z,37.55
2023-04-12T12:27:18.556Z,37.62
2023-04-12T12:28:18.579Z,37.74
2023-04-12T12:29:18.441Z,37.77
2023-04-12T12:30:18.448Z,37.81
2023-04-12T12:31:18.478Z,37.88
2023-04-12T12:32:19.253Z,37.94
2023-04-12T12:33:18.506Z,38.11
2023-04-12T12:34:18.746Z,38.10
2023-04-12T12:35:18.599Z,38.22
2023-04-12T12:36:18.693Z,38.29
2023-04-12T12:37:18.655Z,38.36
2023-04-12T12:38:18.729Z,38.43
2023-04-12T12:39:18.728Z,38.49
2023-04-12T12:40:18.806Z,38.56
2023-04-12T12:41:18.803Z,38.65
2023-04-12T12:42:18.822Z,38.74
2023-04-12T12:43:18.872Z,38.79
2023-04-12T12:44:19.260Z,38.88
2023-04-12T12:45:18.897Z,38.94
2023-04-12T12:46:19.401Z,39.08
2023-04-12T12:47:19.289Z,39.20
2023-04-12T12:48:19.051Z,39.38
2023-04-12T12:49:19.015Z,39.44
2023-04-12T12:50:19.037Z,39.47
2023-04-12T12:51:19.048Z,39.56
2023-04-12T12:52:19.054Z,39.61
2023-04-12T12:53:19.111Z,39.97